createdAt,value
2022-10-06T00:02:37.934Z,13.42
2022-10-06T00:05:40.889Z,13.60
2022-10-06T00:08:45.786Z,13.66
2022-10-06T00:11:48.190Z,13.59
2022-10-06T00:14:50.474Z,13.63
2022-10-06T00:17:52.980Z,13.59
2022-10-06T00:20:59.749Z,13.61
2022-10-06T00:24:02.164Z,13.53
2022-10-06T00:27:04.435Z,13.63
2022-10-06T00:30:12.241Z,13.73
2022-10-06T00:33:16.213Z,13.68
2022-10-06T00:36:19.135Z,13.70
2022-10-06T00:39:21.483Z,13.66
2022-10-06T00:42:33.324Z,13.62
2022-10-06T00:45:38.530Z,13.60
2022-10-06T00:48:41.037Z,13.55
2022-10-06T00:51:50.195Z,13.50
2022-10-06T00:54:52.605Z,13.36
2022-10-06T00:57:54.922Z,13.28
2022-10-06T01:00:57.969Z,13.11
2022-10-06T01:04:06.807Z,12.99
2022-10-06T01:07:10.093Z,12.79
2022-10-06T01:10:12.417Z,12.81
2022-10-06T01:13:15.106Z,12.73
2022-10-06T01:16:22.648Z,12.65
2022-10-06T01:19:54.553Z,12.62
2022-10-06T01:23:05.313Z,12.53
2022-10-06T01:26:10.732Z,12.45
2022-10-06T01:29:13.408Z,12.42
2022-10-06T01:32:16.010Z,12.39
2022-10-06T01:35:18.467Z,12.25
2022-10-06T01:38:22.019Z,12.18
2022-10-06T01:41:27.901Z,12.09
2022-10-06T01:44:30.521Z,12.17
2022-10-06T01:47:34.485Z,12.17
2022-10-06T01:50:36.705Z,12.09
2022-10-06T01:53:39.041Z,12.04
2022-10-06T01:56:41.338Z,12.00
2022-10-06T01:59:43.660Z,12.07
2022-10-06T02:02:46.022Z,12.07
2022-10-06T02:05:48.334Z,11.98
2022-10-06T02:08:50.780Z,12.00
2022-10-06T02:11:53.554Z,11.95
2022-10-06T02:14:56.106Z,11.93
2022-10-06T02:17:58.418Z,11.92
2022-10-06T02:21:03.115Z,11.91
2022-10-06T02:24:05.573Z,11.89
2022-10-06T02:27:08.186Z,11.82
2022-10-06T02:30:12.029Z,11.76
2022-10-06T02:33:15.003Z,11.71
2022-10-06T02:36:17.753Z,11.71
2022-10-06T02:39:20.298Z,11.69
2022-10-06T02:42:22.720Z,11.62
2022-10-06T02:45:24.991Z,11.58
2022-10-06T02:48:28.933Z,11.65
2022-10-06T02:51:32.773Z,11.63
2022-10-06T02:54:36.778Z,11.63
2022-10-06T02:57:39.461Z,11.64
2022-10-06T03:00:42.551Z,11.55
2022-10-06T03:03:46.792Z,11.59
2022-10-06T03:06:49.505Z,11.45
2022-10-06T03:09:55.359Z,11.55
2022-10-06T03:12:59.996Z,11.56
2022-10-06T03:16:03.773Z,11.56
2022-10-06T03:19:07.541Z,11.62
2022-10-06T03:22:10.715Z,11.64
2022-10-06T03:25:26.078Z,11.57
2022-10-06T03:28:28.879Z,11.56
2022-10-06T03:31:31.954Z,11.56
2022-10-06T03:34:34.541Z,11.59
2022-10-06T03:37:39.809Z,11.54
2022-10-06T03:40:42.488Z,11.69
2022-10-06T03:43:46.048Z,11.73
2022-10-06T03:46:49.189Z,11.96
2022-10-06T03:49:51.636Z,11.92
2022-10-06T03:52:53.975Z,11.98
2022-10-06T03:56:06.278Z,12.02
2022-10-06T03:59:11.314Z,12.09
2022-10-06T04:02:16.156Z,11.95
2022-10-06T04:05:18.826Z,11.77
2022-10-06T04:08:21.128Z,11.62
2022-10-06T04:11:25.533Z,11.71
2022-10-06T04:14:28.061Z,11.68
2022-10-06T04:17:31.175Z,11.66
2022-10-06T04:20:33.910Z,11.63
2022-10-06T04:23:39.064Z,11.78
2022-10-06T04:26:45.458Z,11.89
2022-10-06T04:29:48.193Z,11.80
2022-10-06T04:32:51.261Z,11.77
2022-10-06T04:36:05.503Z,11.76
2022-10-06T04:39:10.343Z,11.73
2022-10-06T04:42:12.998Z,11.75
2022-10-06T04:45:15.765Z,11.75
2022-10-06T04:48:18.888Z,11.70
2022-10-06T04:51:23.294Z,11.68
2022-10-06T04:54:28.881Z,11.58
2022-10-06T04:57:34.912Z,11.60
2022-10-06T05:00:37.774Z,11.73
2022-10-06T05:03:40.305Z,11.72
2022-10-06T05:06:42.991Z,11.71
2022-10-06T05:09:46.768Z,11.70
2022-10-06T05:12:49.076Z,11.73
2022-10-06T05:15:59.351Z,11.69
2022-10-06T05:19:03.665Z,11.75
2022-10-06T05:22:06.632Z,11.66
2022-10-06T05:25:10.398Z,11.80
2022-10-06T05:28:12.772Z,11.92
2022-10-06T05:31:19.852Z,12.00
2022-10-06T05:34:22.399Z,12.10
2022-10-06T05:37:25.664Z,12.12
2022-10-06T05:40:28.510Z,12.17
2022-10-06T05:43:31.650Z,12.21
2022-10-06T05:46:34.885Z,12.26
2022-10-06T05:49:37.228Z,12.33
2022-10-06T05:52:40.537Z,12.52
2022-10-06T05:55:43.535Z,12.71
2022-10-06T05:58:51.883Z,12.84
2022-10-06T06:01:55.154Z,12.89
2022-10-06T06:05:07.648Z,13.06
2022-10-06T06:08:11.005Z,13.08
2022-10-06T06:11:13.915Z,13.17
2022-10-06T06:14:18.437Z,13.45
2022-10-06T06:17:21.393Z,13.61
2022-10-06T06:20:23.781Z,13.84
2022-10-06T06:23:33.422Z,13.99
2022-10-06T06:26:37.342Z,14.28
2022-10-06T06:29:40.244Z,14.11
2022-10-06T06:32:43.131Z,13.95
2022-10-06T06:35:45.572Z,13.86
2022-10-06T06:38:51.825Z,13.79
2022-10-06T06:41:54.822Z,13.62
2022-10-06T06:45:23.436Z,13.63
2022-10-06T06:48:38.636Z,13.49
2022-10-06T06:51:43.073Z,13.58
2022-10-06T06:54:49.100Z,13.51
2022-10-06T06:57:53.092Z,13.57
2022-10-06T07:00:55.482Z,13.76
2022-10-06T07:04:01.138Z,13.89
2022-10-06T07:07:07.727Z,13.93
2022-10-06T07:10:12.240Z,14.07
2022-10-06T07:13:17.438Z,14.13
2022-10-06T07:16:41.285Z,14.13
2022-10-06T07:20:02.250Z,14.25
2022-10-06T07:23:29.059Z,14.10
2022-10-06T07:26:32.359Z,14.11
2022-10-06T07:29:35.262Z,14.02
2022-10-06T07:32:38.207Z,13.96
2022-10-06T07:35:40.568Z,13.97
2022-10-06T07:38:43.079Z,14.26
2022-10-06T07:41:45.546Z,14.47
2022-10-06T07:45:07.450Z,15.09
2022-10-06T07:48:19.748Z,15.54
2022-10-06T07:51:28.421Z,15.69
2022-10-06T07:54:34.172Z,16.16
2022-10-06T07:58:21.262Z,16.41
2022-10-06T08:01:26.472Z,16.43
2022-10-06T08:04:28.838Z,16.77
2022-10-06T08:07:31.161Z,16.93
2022-10-06T08:10:33.469Z,17.28
2022-10-06T08:13:38.881Z,17.37
2022-10-06T08:16:41.190Z,17.54
2022-10-06T08:19:43.508Z,17.84
2022-10-06T08:22:47.728Z,18.30
2022-10-06T08:25:54.395Z,18.42
2022-10-06T08:29:03.445Z,18.67
2022-10-06T08:32:09.438Z,18.78
2022-10-06T08:35:11.807Z,18.71
2022-10-06T08:38:14.804Z,18.75
2022-10-06T08:41:23.280Z,18.89
2022-10-06T08:44:40.659Z,18.88
2022-10-06T08:48:04.393Z,19.36
2022-10-06T08:51:19.793Z,19.75
2022-10-06T08:54:48.022Z,19.72
2022-10-06T08:58:12.201Z,19.87
2022-10-06T09:01:19.830Z,19.93
2022-10-06T09:04:28.902Z,19.90
2022-10-06T09:07:54.092Z,19.75
2022-10-06T09:11:06.917Z,19.75
2022-10-06T09:14:24.548Z,19.64
2022-10-06T09:17:32.278Z,19.70
2022-10-06T09:20:38.699Z,19.66
2022-10-06T09:23:47.871Z,19.91
2022-10-06T09:26:51.034Z,20.05
2022-10-06T09:29:53.616Z,20.23
2022-10-06T09:33:01.477Z,20.31
2022-10-06T09:36:09.859Z,20.38
2022-10-06T09:39:22.260Z,20.55
2022-10-06T09:42:35.607Z,20.76
2022-10-06T09:45:38.174Z,21.09
2022-10-06T09:48:40.384Z,21.30
2022-10-06T09:51:58.623Z,21.21
2022-10-06T09:55:18.012Z,21.13
2022-10-06T09:58:24.757Z,21.09
2022-10-06T10:01:29.000Z,21.10
2022-10-06T10:04:35.877Z,21.14
2022-10-06T10:07:38.111Z,21.24
2022-10-06T10:10:40.939Z,21.19
2022-10-06T10:13:43.819Z,21.14
2022-10-06T10:16:52.339Z,21.00
2022-10-06T10:19:55.930Z,20.85
2022-10-06T10:23:19.979Z,20.91
2022-10-06T10:26:37.682Z,20.96
2022-10-06T10:30:01.873Z,21.20
2022-10-06T10:33:27.296Z,21.39
2022-10-06T10:36:35.122Z,21.59
2022-10-06T10:39:44.889Z,21.56
2022-10-06T10:42:54.941Z,21.38
2022-10-06T10:46:32.378Z,21.76
2022-10-06T10:49:35.853Z,21.91
2022-10-06T10:52:41.808Z,21.84
2022-10-06T10:55:47.352Z,21.90
2022-10-06T10:58:57.284Z,22.09
2022-10-06T11:02:20.238Z,22.42
2022-10-06T11:05:36.284Z,22.35
2022-10-06T11:09:00.601Z,22.18
2022-10-06T11:12:08.667Z,22.04
2022-10-06T11:15:32.974Z,21.92
2022-10-06T11:18:53.781Z,21.84
2022-10-06T11:22:01.348Z,21.71
2022-10-06T11:25:13.908Z,21.53
2022-10-06T11:28:23.485Z,21.28
2022-10-06T11:31:31.825Z,21.21
2022-10-06T11:34:34.090Z,21.07
2022-10-06T11:37:46.572Z,21.00
2022-10-06T11:41:18.550Z,20.92
2022-10-06T11:44:39.229Z,20.66
2022-10-06T11:48:07.903Z,20.67
2022-10-06T11:51:26.147Z,20.62
2022-10-06T11:54:40.646Z,20.43
2022-10-06T11:58:08.664Z,20.41
2022-10-06T12:01:36.339Z,20.39
2022-10-06T12:04:38.717Z,20.41
2022-10-06T12:07:56.025Z,20.44
2022-10-06T12:10:58.278Z,20.36
2022-10-06T12:15:12.121Z,20.34
2022-10-06T12:17:41.786Z,20.47
2022-10-06T12:20:59.788Z,20.50
2022-10-06T12:24:32.532Z,20.55
2022-10-06T12:27:49.296Z,20.60
2022-10-06T12:31:17.932Z,20.69
2022-10-06T12:34:42.314Z,20.66
2022-10-06T12:37:48.954Z,20.61
2022-10-06T12:40:57.981Z,20.51
2022-10-06T12:44:03.652Z,20.47
2022-10-06T12:47:16.111Z,20.65
2022-10-06T12:50:25.516Z,20.58
2022-10-06T12:53:33.441Z,20.71
2022-10-06T12:56:40.657Z,20.79
2022-10-06T12:59:43.004Z,20.82
2022-10-06T13:02:45.266Z,20.88
2022-10-06T13:05:52.636Z,20.92
2022-10-06T13:09:14.572Z,20.93
2022-10-06T13:12:19.545Z,20.84
2022-10-06T13:15:37.017Z,20.76
2022-10-06T13:18:39.353Z,20.90
2022-10-06T13:21:41.692Z,20.99
2022-10-06T13:24:43.985Z,20.98
2022-10-06T13:27:51.471Z,20.84
2022-10-06T13:30:54.849Z,20.75
2022-10-06T13:34:10.732Z,20.62
2022-10-06T13:37:14.766Z,20.63
2022-10-06T13:40:21.700Z,20.73
2022-10-06T13:43:30.465Z,20.55
2022-10-06T13:46:40.123Z,20.57
2022-10-06T13:50:02.484Z,20.51
2022-10-06T13:53:05.178Z,20.35
2022-10-06T13:59:38.747Z,20.34
2022-10-06T14:02:42.565Z,20.34
2022-10-06T14:05:46.049Z,20.29
2022-10-06T14:08:56.319Z,20.32
2022-10-06T14:12:04.445Z,20.37
2022-10-06T14:15:17.402Z,20.33
2022-10-06T14:18:23.268Z,20.31
2022-10-06T14:21:42.034Z,20.24
2022-10-06T14:24:51.152Z,20.16
2022-10-06T14:27:54.711Z,20.16
2022-10-06T14:30:57.570Z,20.11
2022-10-06T14:34:00.259Z,20.06
2022-10-06T14:37:02.585Z,19.94
2022-10-06T14:40:08.829Z,19.93
2022-10-06T14:43:14.193Z,19.94
2022-10-06T14:46:16.596Z,19.97
2022-10-06T14:49:19.622Z,19.91
2022-10-06T14:52:22.363Z,19.89
2022-10-06T14:55:30.416Z,19.87
2022-10-06T14:58:37.032Z,19.81
2022-10-06T15:01:40.743Z,19.78
2022-10-06T15:04:43.032Z,19.71
2022-10-06T15:08:04.239Z,19.66
2022-10-06T15:11:06.464Z,19.64
2022-10-06T15:14:09.467Z,19.58
2022-10-06T15:17:12.051Z,19.45
2022-10-06T15:20:14.594Z,19.47
2022-10-06T15:23:17.433Z,19.36
2022-10-06T15:26:38.345Z,19.29
2022-10-06T15:29:40.916Z,19.22
2022-10-06T15:32:43.305Z,19.28
2022-10-06T15:35:50.879Z,19.13
2022-10-06T15:38:54.547Z,19.11
2022-10-06T15:41:57.391Z,18.97
2022-10-06T15:45:02.820Z,18.85
2022-10-06T15:48:09.463Z,18.76
2022-10-06T15:51:11.764Z,18.73
2022-10-06T15:54:16.510Z,18.67
2022-10-06T15:57:21.314Z,18.62
2022-10-06T16:00:23.796Z,18.55
2022-10-06T16:03:40.222Z,18.35
2022-10-06T16:06:50.366Z,18.34
2022-10-06T16:09:53.057Z,18.39
2022-10-06T16:12:55.292Z,18.31
2022-10-06T16:15:57.841Z,18.26
2022-10-06T16:19:02.350Z,18.34
2022-10-06T16:22:06.161Z,18.30
2022-10-06T16:25:08.693Z,18.26
2022-10-06T16:28:11.058Z,18.20
2022-10-06T16:31:13.477Z,18.16
2022-10-06T16:34:16.466Z,18.20
2022-10-06T16:37:18.808Z,18.14
2022-10-06T16:40:23.081Z,18.04
2022-10-06T16:43:38.177Z,18.07
2022-10-06T16:46:40.728Z,17.89
2022-10-06T16:49:43.110Z,17.95
2022-10-06T16:52:45.345Z,17.81
2022-10-06T16:55:47.556Z,17.74
2022-10-06T16:59:00.365Z,17.79
2022-10-06T17:02:02.612Z,17.77
2022-10-06T17:05:05.296Z,17.74
2022-10-06T17:08:07.558Z,17.79
2022-10-06T17:11:15.930Z,17.76
2022-10-06T17:14:19.538Z,17.80
2022-10-06T17:17:21.796Z,17.68
2022-10-06T17:20:24.082Z,17.79
2022-10-06T17:23:27.333Z,17.75
2022-10-06T17:26:31.768Z,17.56
2022-10-06T17:29:34.020Z,17.69
2022-10-06T17:32:36.576Z,17.73
2022-10-06T17:35:38.878Z,17.56
2022-10-06T17:38:45.506Z,17.58
2022-10-06T17:41:49.321Z,17.46
2022-10-06T17:44:52.778Z,17.44
2022-10-06T17:47:55.017Z,17.46
2022-10-06T17:51:00.384Z,17.37
2022-10-06T17:54:05.136Z,17.37
2022-10-06T17:57:07.449Z,17.31
2022-10-06T18:00:10.417Z,17.26
2022-10-06T18:03:15.661Z,17.21
2022-10-06T18:06:19.789Z,17.16
2022-10-06T18:09:22.744Z,17.18
2022-10-06T18:12:25.073Z,17.12
2022-10-06T18:15:27.371Z,17.06
2022-10-06T18:18:30.423Z,16.96
2022-10-06T18:21:38.904Z,16.98
2022-10-06T18:24:41.416Z,16.93
2022-10-06T18:27:44.118Z,16.90
2022-10-06T18:30:50.562Z,16.99
2022-10-06T18:37:16.036Z,16.84
2022-10-06T18:40:18.378Z,16.82
2022-10-06T18:43:20.854Z,16.80
2022-10-06T18:46:41.814Z,16.86
2022-10-06T18:49:44.278Z,16.83
2022-10-06T18:52:46.506Z,16.81
2022-10-06T18:55:51.679Z,16.79
2022-10-06T18:58:53.973Z,16.69
2022-10-06T19:01:56.798Z,16.64
2022-10-06T19:04:59.187Z,16.53
2022-10-06T19:08:01.824Z,16.52
2022-10-06T19:11:26.679Z,16.54
2022-10-06T19:14:35.599Z,16.57
2022-10-06T19:17:41.149Z,16.49
2022-10-06T19:20:50.701Z,16.52
2022-10-06T19:23:52.956Z,16.48
2022-10-06T19:26:56.436Z,16.36
2022-10-06T19:29:58.893Z,16.38
2022-10-06T19:33:01.204Z,16.39
2022-10-06T19:36:04.136Z,16.34
2022-10-06T19:39:10.516Z,16.26
2022-10-06T19:42:33.492Z,16.25
2022-10-06T19:45:35.791Z,16.21
2022-10-06T19:48:38.176Z,16.20
2022-10-06T19:51:41.353Z,16.19
2022-10-06T19:54:43.698Z,16.16
2022-10-06T19:57:46.353Z,16.21
2022-10-06T20:00:49.058Z,16.17
2022-10-06T20:03:51.501Z,16.12
2022-10-06T20:06:53.982Z,16.11
2022-10-06T20:09:56.260Z,16.08
2022-10-06T20:12:58.775Z,16.06
2022-10-06T20:16:02.749Z,16.05
2022-10-06T20:19:07.736Z,16.00
2022-10-06T20:22:10.011Z,15.98
2022-10-06T20:25:12.303Z,15.89
2022-10-06T20:28:14.610Z,16.00
2022-10-06T20:31:19.859Z,15.98
2022-10-06T20:34:24.846Z,15.98
2022-10-06T20:37:27.464Z,15.92
2022-10-06T20:40:47.134Z,15.83
2022-10-06T20:43:49.918Z,15.91
2022-10-06T20:46:54.403Z,15.92
2022-10-06T20:49:56.738Z,15.86
2022-10-06T20:52:59.152Z,15.79
2022-10-06T20:56:01.688Z,15.81
2022-10-06T20:59:07.600Z,15.74
2022-10-06T21:02:10.738Z,15.70
2022-10-06T21:05:13.059Z,15.67
2022-10-06T21:08:15.369Z,15.59
2022-10-06T21:11:19.775Z,15.67
2022-10-06T21:14:22.048Z,15.54
2022-10-06T21:17:24.614Z,15.63
2022-10-06T21:20:26.862Z,15.54
2022-10-06T21:23:30.219Z,15.51
2022-10-06T21:26:33.735Z,15.48
2022-10-06T21:29:36.393Z,15.52
2022-10-06T21:32:38.663Z,15.52
2022-10-06T21:35:41.191Z,15.42
2022-10-06T21:38:45.615Z,15.32
2022-10-06T21:41:47.889Z,15.46
2022-10-06T21:44:50.297Z,15.38
2022-10-06T21:47:52.903Z,15.47
2022-10-06T21:50:55.444Z,15.50
2022-10-06T21:53:59.385Z,15.48
2022-10-06T21:57:01.985Z,15.35
2022-10-06T22:00:05.331Z,15.38
2022-10-06T22:03:15.175Z,15.44
2022-10-06T22:06:19.544Z,15.42
2022-10-06T22:09:22.195Z,15.38
2022-10-06T22:12:24.455Z,15.47
2022-10-06T22:15:26.757Z,15.48
2022-10-06T22:18:29.039Z,15.43
2022-10-06T22:21:33.389Z,15.45
2022-10-06T22:24:35.649Z,15.33
2022-10-06T22:27:37.858Z,15.31
2022-10-06T22:30:40.147Z,15.30
2022-10-06T22:33:44.300Z,15.38
2022-10-06T22:36:46.695Z,15.31
2022-10-06T22:39:48.978Z,15.27
2022-10-06T22:42:51.201Z,15.16
2022-10-06T22:45:53.686Z,15.16
2022-10-06T22:48:56.388Z,15.14
2022-10-06T22:51:58.641Z,15.11
2022-10-06T22:55:00.908Z,15.11
2022-10-06T22:58:03.207Z,15.11
2022-10-06T23:01:10.796Z,15.09
2022-10-06T23:04:13.150Z,14.93
2022-10-06T23:07:15.427Z,14.99
2022-10-06T23:10:19.043Z,14.94
2022-10-06T23:13:21.619Z,14.93
2022-10-06T23:16:24.106Z,14.87
2022-10-06T23:19:26.377Z,14.91
2022-10-06T23:22:28.615Z,14.84
2022-10-06T23:25:30.938Z,14.79
2022-10-06T23:28:33.651Z,14.80
2022-10-06T23:31:35.972Z,14.72
2022-10-06T23:34:38.221Z,14.72
2022-10-06T23:37:40.478Z,14.69
2022-10-06T23:40:42.793Z,14.67
2022-10-06T23:43:45.193Z,14.59
2022-10-06T23:46:47.487Z,14.64
2022-10-06T23:49:49.949Z,14.59
2022-10-06T23:52:52.156Z,14.49
2022-10-06T23:55:54.686Z,14.53
2022-10-06T23:58:57.149Z,14.52
